createdAt,value
2017-05-08T00:00:42.538Z,96.27
2017-05-08T00:01:55.325Z,96.75
2017-05-08T00:03:08.122Z,95.89
2017-05-08T00:04:20.916Z,96.75
2017-05-08T00:05:33.702Z,95.98
2017-05-08T00:06:46.524Z,96.08
2017-05-08T00:07:59.308Z,96.47
2017-05-08T00:09:11.126Z,96.17
2017-05-08T00:10:23.910Z,96.56
2017-05-08T00:11:36.690Z,96.08
2017-05-08T00:12:49.298Z,96.37
2017-05-08T00:14:02.081Z,96.08
2017-05-08T00:15:14.387Z,96.08
2017-05-08T00:16:27.170Z,96.08
2017-05-08T00:17:39.471Z,96.08
2017-05-08T00:18:52.275Z,95.89
2017-05-08T00:20:05.057Z,96.37
2017-05-08T00:21:16.877Z,96.17
2017-05-08T00:22:29.181Z,96.27
2017-05-08T00:23:41.963Z,96.17
2017-05-08T00:24:54.749Z,96.08
2017-05-08T00:26:07.055Z,96.27
2017-05-08T00:27:19.837Z,96.27
2017-05-08T00:28:32.816Z,96.37
2017-05-08T00:29:45.597Z,96.27
2017-05-08T00:30:58.384Z,96.27
2017-05-08T00:32:11.171Z,96.47
2017-05-08T00:33:23.473Z,96.37
2017-05-08T00:34:36.455Z,96.85
2017-05-08T00:35:49.249Z,96.66
2017-05-08T00:37:02.038Z,96.66
2017-05-08T00:38:14.817Z,96.94
2017-05-08T00:39:27.419Z,96.75
2017-05-08T00:40:39.722Z,96.47
2017-05-08T00:41:52.507Z,96.37
2017-05-08T00:43:05.291Z,96.47
2017-05-08T00:44:17.112Z,96.66
2017-05-08T00:45:30.100Z,96.75
2017-05-08T00:46:41.920Z,96.75
2017-05-08T00:47:54.701Z,96.75
2017-05-08T00:49:07.493Z,97.14
2017-05-08T00:50:19.321Z,97.14
2017-05-08T00:51:32.118Z,97.42
2017-05-08T00:52:44.916Z,96.56
2017-05-08T00:53:57.711Z,97.14
2017-05-08T00:55:10.019Z,97.33
2017-05-08T00:56:22.055Z,96.66
2017-05-08T00:57:34.883Z,97.14
2017-05-08T00:58:47.757Z,97.33
2017-05-08T01:00:00.742Z,97.14
2017-05-08T01:01:13.328Z,96.08
2017-05-08T01:02:25.709Z,96.66
2017-05-08T01:03:38.597Z,96.61
2017-05-08T01:04:51.651Z,96.7
2017-05-08T01:06:04.493Z,96.85
2017-05-08T01:07:17.281Z,96.8
2017-05-08T01:08:29.649Z,96.7
2017-05-08T01:09:42.494Z,96.8
2017-05-08T01:10:55.366Z,96.8
2017-05-08T01:12:08.191Z,96.9
2017-05-08T01:13:21.095Z,97.47
2017-05-08T01:14:33.973Z,96.51
2017-05-08T01:15:47.063Z,97.09
2017-05-08T01:17:00.134Z,96.8
2017-05-08T01:18:13.513Z,96.7
2017-05-08T01:19:25.494Z,96.61
2017-05-08T01:20:38.389Z,96.8
2017-05-08T01:21:51.483Z,96.7
2017-05-08T01:23:03.700Z,96.8
2017-05-08T01:24:16.266Z,96.8
2017-05-08T01:25:29.392Z,96.8
2017-05-08T01:26:42.019Z,97.33
2017-05-08T01:27:54.958Z,96.8
2017-05-08T01:29:08.606Z,97.42
2017-05-08T01:30:21.520Z,97.38
2017-05-08T01:31:33.961Z,97.24
2017-05-08T01:32:46.835Z,97.24
2017-05-08T01:34:00.054Z,97.04
2017-05-08T01:35:13.290Z,96.47
2017-05-08T01:36:26.606Z,97.42
2017-05-08T01:37:39.839Z,97.52
2017-05-08T01:38:52.622Z,97.24
2017-05-08T01:40:05.409Z,97.24
2017-05-08T01:41:18.199Z,97.24
2017-05-08T01:42:30.985Z,96.85
2017-05-08T01:43:43.297Z,97.33
2017-05-08T01:44:56.085Z,97.24
2017-05-08T01:46:08.868Z,97.24
2017-05-08T01:47:21.173Z,96.75
2017-05-08T01:48:33.956Z,97.04
2017-05-08T01:49:46.736Z,96.99
2017-05-08T01:50:59.724Z,97.33
2017-05-08T01:52:12.505Z,97.04
2017-05-08T01:53:25.287Z,97.04
2017-05-08T01:54:38.073Z,97.14
2017-05-08T01:55:50.856Z,97.14
2017-05-08T01:57:03.640Z,97.42
2017-05-08T01:58:16.418Z,96.75
2017-05-08T01:59:29.207Z,96.8
2017-05-08T02:00:41.511Z,96.56
2017-05-08T02:01:54.295Z,96.37
2017-05-08T02:03:07.081Z,96.13
2017-05-08T02:04:19.378Z,96.32
2017-05-08T02:05:32.169Z,95.89
2017-05-08T02:06:45.154Z,95.45
2017-05-08T02:07:57.938Z,96.08
2017-05-08T02:09:10.721Z,95.4
2017-05-08T02:10:23.505Z,95.4
2017-05-08T02:11:36.288Z,95.5
2017-05-08T02:12:49.274Z,95.7
2017-05-08T02:14:02.066Z,95.21
2017-05-08T02:15:14.857Z,95.21
2017-05-08T02:16:27.639Z,95.7
2017-05-08T02:17:40.419Z,95.45
2017-05-08T02:18:53.203Z,95.7
2017-05-08T02:20:05.510Z,95.31
2017-05-08T02:21:17.810Z,95.4
2017-05-08T02:22:30.594Z,95.6
2017-05-08T02:23:43.675Z,95.5
2017-05-08T02:24:56.456Z,95.21
2017-05-08T02:26:09.236Z,95.7
2017-05-08T02:27:22.024Z,95.4
2017-05-08T02:28:35.021Z,95.7
2017-05-08T02:29:47.324Z,95.6
2017-05-08T02:30:59.625Z,95.79
2017-05-08T02:32:12.405Z,95.4
2017-05-08T02:33:25.191Z,95.6
2017-05-08T02:34:37.012Z,95.7
2017-05-08T02:35:49.798Z,95.5
2017-05-08T02:37:02.583Z,95.7
2017-05-08T02:38:14.888Z,95.21
2017-05-08T02:39:27.978Z,95.6
2017-05-08T02:40:40.765Z,95.6
2017-05-08T02:41:53.552Z,95.5
2017-05-08T02:43:06.339Z,95.12
2017-05-08T02:44:18.636Z,95.5
2017-05-08T02:45:31.417Z,95.31
2017-05-08T02:46:44.210Z,96.08
2017-05-08T02:47:56.506Z,95.5
2017-05-08T02:49:08.815Z,95.5
2017-05-08T02:50:21.800Z,95.7
2017-05-08T02:51:34.584Z,95.31
2017-05-08T02:52:47.366Z,95.5
2017-05-08T02:53:59.667Z,95.31
2017-05-08T02:55:12.454Z,95.31
2017-05-08T02:56:25.239Z,95.7
2017-05-08T02:57:38.025Z,95.89
2017-05-08T02:58:50.809Z,95.6
2017-05-08T03:00:03.643Z,95.98
2017-05-08T03:01:16.431Z,95.89
2017-05-08T03:02:29.228Z,95.98
2017-05-08T03:03:42.017Z,96.27
2017-05-08T03:04:54.803Z,95.98
2017-05-08T03:06:07.591Z,96.37
2017-05-08T03:07:20.374Z,96.37
2017-05-08T03:08:33.195Z,95.98
2017-05-08T03:09:45.984Z,96.27
2017-05-08T03:10:58.777Z,96.56
2017-05-08T03:12:11.762Z,96.27
2017-05-08T03:13:24.067Z,96.27
2017-05-08T03:14:36.369Z,95.98
2017-05-08T03:15:49.155Z,96.03
2017-05-08T03:17:01.944Z,96.08
2017-05-08T03:18:14.287Z,96.27
2017-05-08T03:19:27.069Z,95.6
2017-05-08T03:20:39.856Z,96.08
2017-05-08T03:21:52.640Z,95.89
2017-05-08T03:23:05.626Z,95.89
2017-05-08T03:24:18.410Z,95.84
2017-05-08T03:25:30.719Z,95.7
2017-05-08T03:26:43.021Z,95.89
2017-05-08T03:27:55.319Z,96.37
2017-05-08T03:29:08.111Z,96.37
2017-05-08T03:30:20.933Z,96.27
2017-05-08T03:31:33.234Z,96.37
2017-05-08T03:32:46.022Z,95.84
2017-05-08T03:33:58.531Z,95.94
2017-05-08T03:35:10.836Z,96.47
2017-05-08T03:36:23.622Z,96.47
2017-05-08T03:37:35.922Z,96.27
2017-05-08T03:38:48.712Z,96.32
2017-05-08T03:40:01.504Z,96.66
2017-05-08T03:41:13.809Z,97.09
2017-05-08T03:42:25.629Z,96.56
2017-05-08T03:43:38.416Z,96.61
2017-05-08T03:44:51.202Z,96.99
2017-05-08T03:46:03.989Z,96.99
2017-05-08T03:47:16.770Z,97.66
2017-05-08T03:48:29.072Z,97.19
2017-05-08T03:49:41.854Z,96.99
2017-05-08T03:50:54.938Z,97.47
2017-05-08T03:52:07.720Z,97.66
2017-05-08T03:53:20.022Z,98.05
2017-05-08T03:54:32.322Z,98.14
2017-05-08T03:55:45.103Z,98.43
2017-05-08T03:56:57.883Z,98.14
2017-05-08T03:58:10.676Z,98.63
2017-05-08T03:59:23.459Z,98.86
2017-05-08T04:00:36.241Z,98.96
2017-05-08T04:01:49.331Z,98.96
2017-05-08T04:03:02.116Z,99.15
2017-05-08T04:04:14.419Z,99.15
2017-05-08T04:05:27.201Z,99.82
2017-05-08T04:06:39.979Z,99.92
2017-05-08T04:07:52.280Z,99.73
2017-05-08T04:09:05.067Z,99.54
2017-05-08T04:10:17.374Z,99.54
2017-05-08T04:11:30.156Z,99.63
2017-05-08T04:12:43.145Z,99.44
2017-05-08T04:13:55.448Z,99.82
2017-05-08T04:15:08.236Z,99.82
2017-05-08T04:16:21.030Z,99.73
2017-05-08T04:17:33.812Z,99.44
2017-05-08T04:18:46.594Z,99.54
2017-05-08T04:19:58.892Z,99.58
2017-05-08T04:21:11.677Z,99.68
2017-05-08T04:22:24.460Z,99.58
2017-05-08T04:23:37.248Z,99.78
2017-05-08T04:24:50.028Z,99.1
2017-05-08T04:26:02.335Z,99.3
2017-05-08T04:27:14.156Z,99.3
2017-05-08T04:28:27.146Z,99.4
2017-05-08T04:29:39.935Z,99.2
2017-05-08T04:30:52.719Z,99.2
2017-05-08T04:32:05.499Z,99.4
2017-05-08T04:33:17.799Z,98.82
2017-05-08T04:34:30.617Z,99.4
2017-05-08T04:35:43.400Z,99.4
2017-05-08T04:36:56.179Z,99.3
2017-05-08T04:38:08.958Z,99.1
2017-05-08T04:39:21.263Z,99.4
2017-05-08T04:40:34.052Z,99.01
2017-05-08T04:41:46.849Z,98.82
2017-05-08T04:42:59.635Z,98.63
2017-05-08T04:44:12.414Z,98.72
2017-05-08T04:45:25.017Z,98.82
2017-05-08T04:46:37.801Z,98.63
2017-05-08T04:47:50.102Z,98.43
2017-05-08T04:49:02.411Z,99.01
2017-05-08T04:50:14.712Z,98.91
2017-05-08T04:51:27.528Z,98.72
2017-05-08T04:52:40.310Z,98.63
2017-05-08T04:53:53.095Z,98.91
2017-05-08T04:55:05.882Z,98.91
2017-05-08T04:56:18.865Z,98.72
2017-05-08T04:57:31.646Z,99.01
2017-05-08T04:58:44.436Z,98.82
2017-05-08T04:59:56.736Z,98.72
2017-05-08T05:01:09.718Z,99.4
2017-05-08T05:02:22.495Z,99.4
2017-05-08T05:03:34.796Z,99.2
2017-05-08T05:04:47.580Z,99.2
2017-05-08T05:06:00.363Z,99.2
2017-05-08T05:07:12.493Z,99.1
2017-05-08T05:08:25.278Z,99.3
2017-05-08T05:09:38.059Z,99.3
2017-05-08T05:10:50.363Z,99.3
2017-05-08T05:12:03.352Z,99.01
2017-05-08T05:13:16.142Z,98.63
2017-05-08T05:14:28.932Z,98.72
2017-05-08T05:15:41.713Z,98.72
2017-05-08T05:16:54.012Z,98.91
2017-05-08T05:18:07.103Z,98.72
2017-05-08T05:19:19.405Z,98.72
2017-05-08T05:20:32.231Z,99.01
2017-05-08T05:21:45.021Z,99.3
2017-05-08T05:22:58.113Z,98.63
2017-05-08T05:24:09.942Z,98.72
2017-05-08T05:25:22.818Z,98.63
2017-05-08T05:26:35.141Z,98.63
2017-05-08T05:27:47.946Z,98.72
2017-05-08T05:29:00.260Z,98.63
2017-05-08T05:30:12.091Z,98.91
2017-05-08T05:31:24.893Z,98.53
2017-05-08T05:32:37.683Z,98.43
2017-05-08T05:33:50.480Z,98.05
2017-05-08T05:35:02.795Z,97.71
2017-05-08T05:36:15.100Z,97.09
2017-05-08T05:37:27.927Z,96.99
2017-05-08T05:38:40.719Z,96.99
2017-05-08T05:39:53.237Z,96.8
2017-05-08T05:41:05.556Z,96.99
2017-05-08T05:42:17.867Z,96.56
2017-05-08T05:43:29.699Z,96.56
2017-05-08T05:44:42.211Z,96.47
2017-05-08T05:45:55.009Z,96.37
2017-05-08T05:47:07.798Z,96.42
2017-05-08T05:48:19.629Z,96.47
2017-05-08T05:49:32.422Z,96.22
2017-05-08T05:50:45.513Z,95.84
2017-05-08T05:51:58.305Z,95.89
2017-05-08T05:53:10.613Z,96.27
2017-05-08T05:54:23.400Z,95.98
2017-05-08T05:55:36.396Z,95.98
2017-05-08T05:56:49.199Z,96.08
2017-05-08T05:58:01.512Z,96.37
2017-05-08T05:59:14.310Z,95.98
2017-05-08T06:00:27.106Z,95.79
2017-05-08T06:01:39.718Z,96.08
2017-05-08T06:02:52.527Z,96.18
2017-05-08T06:04:05.320Z,95.84
2017-05-08T06:05:17.628Z,95.89
2017-05-08T06:06:29.927Z,95.98
2017-05-08T06:07:42.230Z,95.41
2017-05-08T06:08:55.023Z,95.89
2017-05-08T06:10:07.809Z,95.89
2017-05-08T06:11:19.627Z,95.79
2017-05-08T06:12:32.719Z,96.18
2017-05-08T06:13:45.502Z,96.18
2017-05-08T06:14:58.287Z,95.89
2017-05-08T06:16:10.583Z,96.27
2017-05-08T06:17:23.359Z,95.98
2017-05-08T06:18:35.668Z,95.79
2017-05-08T06:19:47.489Z,96.08
2017-05-08T06:21:00.274Z,95.89
2017-05-08T06:22:12.578Z,96.47
2017-05-08T06:23:25.194Z,96.85
2017-05-08T06:24:37.981Z,96.66
2017-05-08T06:25:50.277Z,96.56
2017-05-08T06:27:03.063Z,96.47
2017-05-08T06:28:15.853Z,96.37
2017-05-08T06:29:28.634Z,96.56
2017-05-08T06:30:41.418Z,96.75
2017-05-08T06:31:54.198Z,96.66
2017-05-08T06:33:06.977Z,96.37
2017-05-08T06:34:19.755Z,96.75
2017-05-08T06:35:32.541Z,96.75
2017-05-08T06:36:45.327Z,96.56
2017-05-08T06:37:58.113Z,96.94
2017-05-08T06:39:11.097Z,96.75
2017-05-08T06:40:23.396Z,97.14
2017-05-08T06:41:36.175Z,97.14
2017-05-08T06:42:48.960Z,96.99
2017-05-08T06:44:01.740Z,97.61
2017-05-08T06:45:14.519Z,97.56
2017-05-08T06:46:27.329Z,97.52
2017-05-08T06:47:40.110Z,98
2017-05-08T06:48:52.892Z,98.05
2017-05-08T06:50:05.205Z,98.33
2017-05-08T06:51:18.001Z,98.82
2017-05-08T06:52:30.804Z,98.53
2017-05-08T06:53:43.583Z,98.53
2017-05-08T06:54:55.889Z,98.82
2017-05-08T06:56:08.494Z,98.72
2017-05-08T06:57:20.796Z,99.2
2017-05-08T06:58:33.586Z,98.82
2017-05-08T06:59:46.369Z,99.58
2017-05-08T07:00:59.459Z,99.68
2017-05-08T07:02:12.240Z,99.58
2017-05-08T07:03:24.548Z,99.29
2017-05-08T07:04:37.327Z,99.87
2017-05-08T07:05:50.108Z,99.87
2017-05-08T07:07:02.887Z,99.99
2017-05-08T07:08:15.182Z,99.96
2017-05-08T07:09:27.960Z,99.68
2017-05-08T07:10:40.748Z,99.49
2017-05-08T07:11:53.049Z,99.49
2017-05-08T07:13:05.830Z,99.77
2017-05-08T07:14:18.607Z,99.77
2017-05-08T07:15:31.420Z,99.49
2017-05-08T07:16:44.200Z,99.68
2017-05-08T07:17:56.988Z,99.58
2017-05-08T07:19:09.293Z,99.58
2017-05-08T07:20:22.072Z,99.58
2017-05-08T07:21:34.370Z,99.87
2017-05-08T07:22:47.454Z,99.49
2017-05-08T07:24:00.238Z,99.87
2017-05-08T07:25:13.015Z,98.91
2017-05-08T07:26:25.833Z,99.87
2017-05-08T07:27:38.132Z,99.58
2017-05-08T07:28:50.920Z,99.29
2017-05-08T07:30:03.709Z,99.68
2017-05-08T07:31:16.487Z,99.58
2017-05-08T07:32:29.276Z,99.68
2017-05-08T07:33:42.058Z,99.49
2017-05-08T07:34:54.350Z,99.49
2017-05-08T07:36:06.646Z,99.29
2017-05-08T07:37:18.946Z,99.39
2017-05-08T07:38:31.729Z,99.49
2017-05-08T07:39:44.030Z,99.49
2017-05-08T07:40:56.325Z,99.87
2017-05-08T07:42:09.109Z,99.58
2017-05-08T07:43:21.886Z,99.68
2017-05-08T07:44:34.685Z,99.29
2017-05-08T07:45:46.983Z,99.87
2017-05-08T07:46:58.797Z,99.99
2017-05-08T07:48:11.574Z,99.99
2017-05-08T07:49:23.869Z,99.99
2017-05-08T07:50:35.983Z,99.87
2017-05-08T07:51:48.765Z,99.68
2017-05-08T07:53:01.069Z,99.96
2017-05-08T07:54:13.846Z,99.99
2017-05-08T07:55:26.627Z,99.68
2017-05-08T07:56:38.925Z,99.99
2017-05-08T07:57:51.707Z,99.99
2017-05-08T07:59:03.526Z,99.96
2017-05-08T08:00:16.303Z,99.99
2017-05-08T08:01:29.082Z,99.99
2017-05-08T08:02:41.863Z,99.99
2017-05-08T08:03:53.679Z,99.99
2017-05-08T08:05:05.494Z,99.99
2017-05-08T08:06:18.475Z,99.99
2017-05-08T08:07:31.259Z,99.99
2017-05-08T08:08:44.038Z,99.99
2017-05-08T08:09:56.341Z,99.99
2017-05-08T08:11:08.641Z,99.99
2017-05-08T08:12:21.425Z,99.99
2017-05-08T08:13:34.208Z,99.99
2017-05-08T08:14:46.508Z,99.99
2017-05-08T08:15:58.806Z,99.99
2017-05-08T08:17:11.788Z,99.99
2017-05-08T08:18:23.606Z,99.99
2017-05-08T08:19:36.386Z,99.99
2017-05-08T08:20:49.173Z,99.99
2017-05-08T08:22:01.993Z,99.99
2017-05-08T08:23:14.793Z,99.99
2017-05-08T08:24:27.094Z,99.99
2017-05-08T08:25:39.889Z,99.99
2017-05-08T08:26:52.688Z,99.99
2017-05-08T08:28:05.489Z,99.99
2017-05-08T08:29:17.323Z,99.99
2017-05-08T08:30:30.121Z,99.99
2017-05-08T08:31:42.433Z,99.99
2017-05-08T08:32:54.264Z,99.99
2017-05-08T08:34:07.353Z,99.99
2017-05-08T08:35:19.656Z,99.99
2017-05-08T08:36:32.443Z,99.99
2017-05-08T08:37:45.240Z,99.99
2017-05-08T08:38:57.076Z,99.99
2017-05-08T08:40:09.860Z,99.99
2017-05-08T08:41:22.171Z,99.99
2017-05-08T08:42:34.965Z,99.99
2017-05-08T08:43:47.274Z,99.99
2017-05-08T08:45:00.061Z,99.99
2017-05-08T08:46:11.880Z,99.99
2017-05-08T08:47:24.669Z,99.99
2017-05-08T08:48:37.455Z,99.99
2017-05-08T08:49:49.472Z,99.99
2017-05-08T08:51:01.775Z,99.99
2017-05-08T08:52:14.071Z,99.99
2017-05-08T08:53:26.865Z,99.99
2017-05-08T08:54:39.169Z,99.99
2017-05-08T08:55:50.988Z,99.99
2017-05-08T08:57:03.778Z,99.99
2017-05-08T08:58:16.088Z,99.99
2017-05-08T08:59:28.878Z,99.99
2017-05-08T09:00:41.666Z,99.99
2017-05-08T09:01:53.689Z,99.99
2017-05-08T09:03:06.482Z,99.99
2017-05-08T09:04:19.308Z,99.99
2017-05-08T09:05:32.091Z,99.99
2017-05-08T09:06:43.906Z,99.99
2017-05-08T09:07:55.243Z,99.99
2017-05-08T09:09:08.040Z,99.99
2017-05-08T09:10:20.337Z,99.99
2017-05-08T09:11:33.116Z,99.99
2017-05-08T09:12:46.098Z,99.99
2017-05-08T09:13:57.941Z,99.99
2017-05-08T09:15:10.236Z,99.99
2017-05-08T09:16:22.531Z,99.99
2017-05-08T09:17:35.312Z,99.99
2017-05-08T09:18:48.096Z,99.99
2017-05-08T09:19:59.918Z,99.99
2017-05-08T09:21:12.730Z,99.99
2017-05-08T09:22:25.508Z,99.99
2017-05-08T09:23:38.289Z,99.99
2017-05-08T09:24:51.071Z,99.99
2017-05-08T09:26:02.895Z,99.99
2017-05-08T09:27:15.673Z,99.99
2017-05-08T09:28:28.760Z,99.99
2017-05-08T09:29:41.060Z,99.99
2017-05-08T09:30:53.357Z,99.99
2017-05-08T09:32:05.656Z,99.99
2017-05-08T09:33:18.434Z,99.99
2017-05-08T09:34:31.044Z,99.99
2017-05-08T09:35:42.858Z,99.99
2017-05-08T09:36:55.162Z,99.99
2017-05-08T09:38:06.980Z,99.99
2017-05-08T09:39:19.282Z,99.99
2017-05-08T09:40:31.580Z,99.99
2017-05-08T09:41:43.880Z,99.99
2017-05-08T09:42:56.179Z,99.99
2017-05-08T09:44:08.486Z,99.99
2017-05-08T09:45:21.267Z,99.99
2017-05-08T09:46:34.048Z,99.99
2017-05-08T09:47:46.829Z,99.99
2017-05-08T09:48:59.610Z,99.99
2017-05-08T09:50:12.688Z,99.99
2017-05-08T09:51:24.504Z,99.99
2017-05-08T09:52:36.319Z,99.99
2017-05-08T09:53:49.103Z,99.99
2017-05-08T09:55:01.396Z,99.99
2017-05-08T09:56:14.374Z,99.99
2017-05-08T09:57:26.196Z,99.99
2017-05-08T09:58:38.975Z,99.99
2017-05-08T09:59:51.271Z,99.99
2017-05-08T10:01:03.290Z,99.99
2017-05-08T10:02:15.586Z,99.99
2017-05-08T10:03:28.363Z,99.99
2017-05-08T10:04:41.143Z,99.99
2017-05-08T10:05:53.442Z,99.99
2017-05-08T10:07:06.047Z,99.99
2017-05-08T10:08:17.858Z,99.99
2017-05-08T10:09:30.156Z,99.99
2017-05-08T10:10:42.935Z,99.99
2017-05-08T10:11:55.430Z,99.99
2017-05-08T10:13:08.213Z,99.99
2017-05-08T10:14:20.993Z,99.99
2017-05-08T10:15:33.775Z,99.99
2017-05-08T10:16:46.069Z,99.99
2017-05-08T10:17:58.363Z,99.99
2017-05-08T10:19:11.154Z,99.99
2017-05-08T10:20:23.942Z,99.99
2017-05-08T10:21:35.759Z,99.99
2017-05-08T10:22:48.061Z,99.99
2017-05-08T10:24:00.840Z,99.99
2017-05-08T10:25:13.618Z,99.99
2017-05-08T10:26:26.434Z,99.99
2017-05-08T10:27:38.731Z,99.99
2017-05-08T10:28:51.231Z,99.99
2017-05-08T10:30:03.047Z,99.99
2017-05-08T10:31:15.343Z,99.99
2017-05-08T10:32:27.642Z,99.99
2017-05-08T10:33:40.418Z,99.99
2017-05-08T10:34:52.718Z,99.99
2017-05-08T10:36:05.028Z,99.99
2017-05-08T10:37:17.819Z,99.99
2017-05-08T10:38:30.607Z,99.99
2017-05-08T10:39:43.392Z,99.99
2017-05-08T10:40:55.699Z,99.99
2017-05-08T10:42:08.490Z,99.99
2017-05-08T10:43:21.277Z,99.99
2017-05-08T10:44:34.065Z,99.99
2017-05-08T10:45:46.857Z,99.99
2017-05-08T10:46:59.683Z,99.99
2017-05-08T10:48:11.039Z,99.99
2017-05-08T10:49:23.820Z,99.99
2017-05-08T10:50:35.645Z,99.99
2017-05-08T10:51:47.956Z,99.99
2017-05-08T10:53:00.746Z,99.99
2017-05-08T10:54:13.042Z,99.99
2017-05-08T10:55:24.862Z,99.99
2017-05-08T10:56:37.660Z,99.99
2017-05-08T10:57:49.973Z,99.99
2017-05-08T10:59:02.272Z,99.99
2017-05-08T11:00:14.568Z,99.99
2017-05-08T11:01:27.559Z,99.99
2017-05-08T11:02:39.871Z,99.99
2017-05-08T11:03:52.178Z,99.99
2017-05-08T11:05:04.478Z,99.99
2017-05-08T11:06:16.790Z,99.99
2017-05-08T11:07:29.102Z,99.99
2017-05-08T11:08:41.883Z,99.99
2017-05-08T11:09:53.218Z,99.99
2017-05-08T11:11:05.038Z,99.99
2017-05-08T11:12:17.828Z,99.99
2017-05-08T11:13:30.618Z,99.96
2017-05-08T11:14:42.916Z,99.01
2017-05-08T11:15:55.223Z,98.05
2017-05-08T11:17:08.014Z,98.14
2017-05-08T11:18:20.325Z,97.76
2017-05-08T11:19:32.627Z,98.62
2017-05-08T11:20:44.441Z,98.72
2017-05-08T11:21:57.217Z,98.38
2017-05-08T11:23:09.232Z,98.19
2017-05-08T11:24:21.537Z,99.05
2017-05-08T11:25:32.879Z,99.73
2017-05-08T11:26:45.186Z,99.54
2017-05-08T11:27:57.489Z,99.54
2017-05-08T11:29:09.309Z,98.86
2017-05-08T11:30:21.613Z,99.54
2017-05-08T11:31:34.392Z,99.4
2017-05-08T11:32:47.178Z,99.3
2017-05-08T11:33:59.963Z,96.7
2017-05-08T11:35:12.260Z,94.64
2017-05-08T11:36:24.556Z,93.1
2017-05-08T11:37:37.345Z,92.43
2017-05-08T11:38:50.133Z,91.8
2017-05-08T11:40:01.955Z,90.07
2017-05-08T11:41:14.774Z,88.82
2017-05-08T11:42:27.079Z,89.25
2017-05-08T11:43:39.387Z,88.39
2017-05-08T11:44:51.695Z,87.04
2017-05-08T11:46:02.551Z,85.83
2017-05-08T11:47:14.367Z,85.54
2017-05-08T11:48:26.197Z,85.78
2017-05-08T11:49:38.983Z,85.2
2017-05-08T11:50:51.766Z,83.75
2017-05-08T11:52:03.603Z,83.95
2017-05-08T11:53:15.905Z,83.95
2017-05-08T11:54:28.698Z,82.35
2017-05-08T11:55:41.009Z,82.16
2017-05-08T11:56:54.135Z,81.62
2017-05-08T11:58:05.962Z,81.91
2017-05-08T11:59:18.748Z,81.62
2017-05-08T12:00:30.095Z,81.33
2017-05-08T12:01:42.882Z,80.22
2017-05-08T12:02:55.187Z,79.74
2017-05-08T12:04:07.488Z,78.86
2017-05-08T12:05:20.276Z,79
2017-05-08T12:06:32.111Z,78.81
2017-05-08T12:07:43.932Z,77.75
2017-05-08T12:08:56.244Z,77.07
2017-05-08T12:10:09.027Z,76.72
2017-05-08T12:11:21.814Z,77.07
2017-05-08T12:12:34.600Z,76.92
2017-05-08T12:13:46.937Z,75.47
2017-05-08T12:14:59.238Z,75.27
2017-05-08T12:16:12.020Z,74.41
2017-05-08T12:17:23.872Z,74.02
2017-05-08T12:18:35.690Z,74.31
2017-05-08T12:19:48.001Z,75.09
2017-05-08T12:21:00.307Z,75.14
2017-05-08T12:22:13.095Z,75.18
2017-05-08T12:23:25.884Z,75.09
2017-05-08T12:24:38.667Z,74.99
2017-05-08T12:25:50.974Z,74.41
2017-05-08T12:27:03.764Z,74.99
2017-05-08T12:28:16.550Z,75.72
2017-05-08T12:29:29.339Z,75.72
2017-05-08T12:30:42.123Z,75.09
2017-05-08T12:31:54.911Z,74.69
2017-05-08T12:33:06.750Z,74.02
2017-05-08T12:34:19.050Z,75.18
2017-05-08T12:35:31.838Z,74.79
2017-05-08T12:36:44.621Z,74.41
2017-05-08T12:37:56.928Z,74.99
2017-05-08T12:39:09.147Z,74.79
2017-05-08T12:40:20.490Z,75.79
2017-05-08T12:41:33.283Z,75.12
2017-05-08T12:42:46.077Z,75.89
2017-05-08T12:43:58.425Z,74.44
2017-05-08T12:45:25.296Z,73.38
2017-05-08T12:46:37.129Z,73.09
2017-05-08T12:47:49.922Z,72.36
2017-05-08T12:49:02.734Z,72.45
2017-05-08T12:50:29.132Z,73.32
2017-05-08T12:51:41.969Z,72.16
2017-05-08T12:52:54.307Z,71.97
2017-05-08T12:54:07.105Z,72.1
2017-05-08T12:55:18.942Z,72
2017-05-08T12:56:31.766Z,71.14
2017-05-08T12:57:44.578Z,69.88
2017-05-08T12:58:57.365Z,70.3
2017-05-08T13:00:09.674Z,70.1
2017-05-08T13:01:21.519Z,69.24
2017-05-08T13:02:34.367Z,68.98
2017-05-08T13:03:47.159Z,69.56
2017-05-08T13:04:59.943Z,68.95
2017-05-08T13:06:12.251Z,69.24
2017-05-08T13:07:24.078Z,69.75
2017-05-08T13:08:36.387Z,69.62
2017-05-08T13:09:48.693Z,70.68
2017-05-08T13:11:00.998Z,69.66
2017-05-08T13:12:13.302Z,70.14
2017-05-08T13:13:26.088Z,69.53
2017-05-08T13:14:38.872Z,69.92
2017-05-08T13:15:51.654Z,70.2
2017-05-08T13:17:04.442Z,70.3
2017-05-08T13:18:17.233Z,69.24
2017-05-08T13:19:29.548Z,69.43
2017-05-08T13:20:42.334Z,69.62
2017-05-08T13:21:54.642Z,69.62
2017-05-08T13:23:06.950Z,69.14
2017-05-08T13:24:19.285Z,69.33
2017-05-08T13:25:31.594Z,68.79
2017-05-08T13:26:44.382Z,69.08
2017-05-08T13:27:57.172Z,68.21
2017-05-08T13:29:09.964Z,68.3
2017-05-08T13:30:22.750Z,68.4
2017-05-08T13:31:35.541Z,67.91
2017-05-08T13:32:48.331Z,68.15
2017-05-08T13:34:01.124Z,67.46
2017-05-08T13:35:13.931Z,67.27
2017-05-08T13:36:26.244Z,66.88
2017-05-08T13:37:39.047Z,68.21
2017-05-08T13:38:51.847Z,68.59
2017-05-08T13:40:04.792Z,69.4
2017-05-08T13:41:17.099Z,70.26
2017-05-08T13:42:29.901Z,70.26
2017-05-08T13:43:42.700Z,69.72
2017-05-08T13:44:55.010Z,70.68
2017-05-08T13:46:07.523Z,68.95
2017-05-08T13:47:19.344Z,69.04
2017-05-08T13:48:31.173Z,69.53
2017-05-08T13:49:43.969Z,68.98
2017-05-08T13:50:56.758Z,68.98
2017-05-08T13:52:09.545Z,67.91
2017-05-08T13:53:22.351Z,68.69
2017-05-08T13:54:34.666Z,67.82
2017-05-08T13:55:47.454Z,67.53
2017-05-08T13:57:00.246Z,67.43
2017-05-08T13:58:12.565Z,67.76
2017-05-08T13:59:25.351Z,67.66
2017-05-08T14:00:38.144Z,68.15
2017-05-08T14:01:51.133Z,67.27
2017-05-08T14:03:03.920Z,66.78
2017-05-08T14:04:16.234Z,67.66
2017-05-08T14:05:28.548Z,67.76
2017-05-08T14:06:41.548Z,66.4
2017-05-08T14:07:54.370Z,66.3
2017-05-08T14:09:06.673Z,65.82
2017-05-08T14:10:19.471Z,65.66
2017-05-08T14:11:32.256Z,65.37
2017-05-08T14:12:44.898Z,65.43
2017-05-08T14:13:57.209Z,65.53
2017-05-08T14:15:09.520Z,65.08
2017-05-08T14:16:21.824Z,65.47
2017-05-08T14:17:33.803Z,65.08
2017-05-08T14:18:46.597Z,65.17
2017-05-08T14:19:59.388Z,66.02
2017-05-08T14:21:11.228Z,65.63
2017-05-08T14:22:23.544Z,65.72
2017-05-08T14:23:36.335Z,66.69
2017-05-08T14:24:49.131Z,66.69
2017-05-08T14:26:01.927Z,66.69
2017-05-08T14:27:14.233Z,66.69
2017-05-08T14:28:27.224Z,66.6
2017-05-08T14:29:40.010Z,65.85
2017-05-08T14:30:51.834Z,65.37
2017-05-08T14:32:04.625Z,65.75
2017-05-08T14:34:57.871Z,65.27
2017-05-08T14:36:09.697Z,65.47
2017-05-08T14:37:22.482Z,65.43
2017-05-08T14:38:34.791Z,65.82
2017-05-08T14:39:47.586Z,66.3
2017-05-08T14:40:59.897Z,66.69
2017-05-08T14:42:12.205Z,66.6
2017-05-08T14:43:24.515Z,66.2
2017-05-08T14:44:37.505Z,66.3
2017-05-08T14:45:50.299Z,66.69
2017-05-08T14:47:03.087Z,66.4
2017-05-08T14:48:15.874Z,66.3
2017-05-08T14:49:29.161Z,66.11
2017-05-08T14:50:41.959Z,66.11
2017-05-08T14:51:54.751Z,66.6
2017-05-08T14:53:07.059Z,66.78
2017-05-08T14:54:19.844Z,67.46
2017-05-08T14:55:32.633Z,68.01
2017-05-08T14:56:44.938Z,69.24
2017-05-08T14:57:57.722Z,68.66
2017-05-08T14:59:10.027Z,68.08
2017-05-08T15:00:22.632Z,69.33
2017-05-08T15:01:35.418Z,69.24
2017-05-08T15:02:48.206Z,70.17
2017-05-08T15:04:01.000Z,69.98
2017-05-08T15:05:13.315Z,69.78
2017-05-08T15:06:26.110Z,70.17
2017-05-08T15:07:38.897Z,70.36
2017-05-08T15:08:51.685Z,70.94
2017-05-08T15:10:04.469Z,71.14
2017-05-08T15:11:17.269Z,71.52
2017-05-08T15:12:29.574Z,71.04
2017-05-08T15:13:42.358Z,70.9
2017-05-08T15:14:54.664Z,71.33
2017-05-08T15:16:07.449Z,71.2
2017-05-08T15:17:19.757Z,71.48
2017-05-08T15:18:32.543Z,71.3
2017-05-08T15:19:45.330Z,71.3
2017-05-08T15:20:58.118Z,71.97
2017-05-08T15:22:10.430Z,71.97
2017-05-08T15:23:22.734Z,72.26
2017-05-08T15:24:35.045Z,72.74
2017-05-08T15:25:47.831Z,72.71
2017-05-08T15:27:00.622Z,73.28
2017-05-08T15:28:13.566Z,73.28
2017-05-08T15:29:26.351Z,73.38
2017-05-08T15:30:38.658Z,74.35
2017-05-08T15:31:51.446Z,74.06
2017-05-08T15:33:04.237Z,73.96
2017-05-08T15:34:17.023Z,74.06
2017-05-08T15:35:29.812Z,74.06
2017-05-08T15:36:42.122Z,73.86
2017-05-08T15:37:53.950Z,73.22
2017-05-08T15:39:06.735Z,73.61
2017-05-08T15:40:19.523Z,73.38
2017-05-08T15:41:32.308Z,73.71